sensor_id;sensor_type;location;lat;lon;timestamp;pressure;altitude;pressure_sealevel;temperature;humidity
17309;BME280;8772;42.804;23.426;2022-09-01T00:01:35;94484.34;;;16.35;100.00
17309;BME280;8772;42.804;23.426;2022-09-01T00:04:04;94479.66;;;16.36;100.00
17309;BME280;8772;42.804;23.426;2022-09-01T00:06:33;94473.06;;;16.37;100.00
17309;BME280;8772;42.804;23.426;2022-09-01T00:09:05;94472.44;;;16.33;100.00
17309;BME280;8772;42.804;23.426;2022-09-01T00:11:32;94470.22;;;16.22;100.00
17309;BME280;8772;42.804;23.426;2022-09-01T00:14:01;94466.16;;;16.27;100.00
17309;BME280;8772;42.804;23.426;2022-09-01T00:16:28;94462.41;;;16.24;100.00
17309;BME280;8772;42.804;23.426;2022-09-01T00:18:56;94464.03;;;16.22;100.00
17309;BME280;8772;42.804;23.426;2022-09-01T00:21:26;94464.81;;;16.22;100.00
17309;BME280;8772;42.804;23.426;2022-09-01T00:23:54;94461.34;;;16.22;100.00
17309;BME280;8772;42.804;23.426;2022-09-01T00:26:22;94464.03;;;16.13;100.00
17309;BME280;8772;42.804;23.426;2022-09-01T00:28:49;94473.03;;;16.10;100.00
17309;BME280;8772;42.804;23.426;2022-09-01T00:31:17;94478.00;;;16.11;100.00
17309;BME280;8772;42.804;23.426;2022-09-01T00:33:44;94472.31;;;16.09;100.00
17309;BME280;8772;42.804;23.426;2022-09-01T00:36:12;94471.53;;;16.09;100.00
17309;BME280;8772;42.804;23.426;2022-09-01T00:38:39;94480.22;;;16.04;100.00
17309;BME280;8772;42.804;23.426;2022-09-01T00:41:06;94487.69;;;16.00;100.00
17309;BME280;8772;42.804;23.426;2022-09-01T00:43:40;94483.22;;;15.97;100.00
17309;BME280;8772;42.804;23.426;2022-09-01T00:46:11;94477.94;;;15.93;100.00
17309;BME280;8772;42.804;23.426;2022-09-01T00:48:38;94491.59;;;15.90;100.00
17309;BME280;8772;42.804;23.426;2022-09-01T00:51:07;94485.59;;;15.86;100.00
17309;BME280;8772;42.804;23.426;2022-09-01T00:53:37;94486.47;;;15.83;100.00
17309;BME280;8772;42.804;23.426;2022-09-01T00:56:07;94491.41;;;15.75;100.00
17309;BME280;8772;42.804;23.426;2022-09-01T00:58:35;94488.13;;;15.71;100.00
17309;BME280;8772;42.804;23.426;2022-09-01T01:01:05;94481.78;;;15.65;100.00
17309;BME280;8772;42.804;23.426;2022-09-01T01:03:34;94493.13;;;15.51;100.00
17309;BME280;8772;42.804;23.426;2022-09-01T01:06:31;94485.28;;;15.36;100.00
17309;BME280;8772;42.804;23.426;2022-09-01T01:08:59;94489.53;;;15.24;100.00
17309;BME280;8772;42.804;23.426;2022-09-01T01:11:30;94480.25;;;15.25;100.00
17309;BME280;8772;42.804;23.426;2022-09-01T01:14:03;94478.53;;;15.31;100.00
17309;BME280;8772;42.804;23.426;2022-09-01T01:16:40;94484.22;;;15.33;100.00
17309;BME280;8772;42.804;23.426;2022-09-01T01:19:12;94479.91;;;15.36;100.00
17309;BME280;8772;42.804;23.426;2022-09-01T01:22:05;94476.44;;;15.35;100.00
17309;BME280;8772;42.804;23.426;2022-09-01T01:24:53;94474.34;;;15.30;100.00
17309;BME280;8772;42.804;23.426;2022-09-01T01:27:21;94477.91;;;15.27;100.00
17309;BME280;8772;42.804;23.426;2022-09-01T01:29:48;94484.63;;;15.23;100.00
17309;BME280;8772;42.804;23.426;2022-09-01T01:32:17;94481.34;;;15.28;100.00
17309;BME280;8772;42.804;23.426;2022-09-01T01:34:45;94479.41;;;15.28;100.00
17309;BME280;8772;42.804;23.426;2022-09-01T01:37:13;94480.13;;;15.29;100.00
17309;BME280;8772;42.804;23.426;2022-09-01T01:39:40;94482.34;;;15.21;100.00
17309;BME280;8772;42.804;23.426;2022-09-01T01:42:10;94480.59;;;15.27;100.00
17309;BME280;8772;42.804;23.426;2022-09-01T01:44:37;94491.94;;;15.22;100.00
17309;BME280;8772;42.804;23.426;2022-09-01T01:47:08;94495.09;;;15.21;100.00
17309;BME280;8772;42.804;23.426;2022-09-01T01:49:38;94499.13;;;15.25;100.00
17309;BME280;8772;42.804;23.426;2022-09-01T01:52:09;94510.22;;;15.27;100.00
17309;BME280;8772;42.804;23.426;2022-09-01T01:54:39;94515.63;;;15.27;100.00
17309;BME280;8772;42.804;23.426;2022-09-01T01:57:06;94516.78;;;15.26;100.00
17309;BME280;8772;42.804;23.426;2022-09-01T01:59:35;94510.06;;;15.22;100.00
17309;BME280;8772;42.804;23.426;2022-09-01T02:02:05;94516.78;;;15.26;100.00
17309;BME280;8772;42.804;23.426;2022-09-01T02:04:33;94519.47;;;15.26;100.00
17309;BME280;8772;42.804;23.426;2022-09-01T02:07:00;94534.59;;;15.24;100.00
17309;BME280;8772;42.804;23.426;2022-09-01T02:09:27;94525.88;;;15.20;100.00
17309;BME280;8772;42.804;23.426;2022-09-01T02:11:54;94516.00;;;15.17;100.00
17309;BME280;8772;42.804;23.426;2022-09-01T02:14:22;94516.75;;;15.17;100.00
17309;BME280;8772;42.804;23.426;2022-09-01T02:16:51;94518.25;;;15.18;100.00
17309;BME280;8772;42.804;23.426;2022-09-01T02:19:20;94522.88;;;15.18;100.00
17309;BME280;8772;42.804;23.426;2022-09-01T02:21:47;94520.06;;;15.21;100.00
17309;BME280;8772;42.804;23.426;2022-09-01T02:24:19;94518.81;;;15.13;100.00
17309;BME280;8772;42.804;23.426;2022-09-01T02:26:46;94532.16;;;15.17;100.00
17309;BME280;8772;42.804;23.426;2022-09-01T02:29:18;94516.13;;;15.13;100.00
17309;BME280;8772;42.804;23.426;2022-09-01T02:31:50;94520.16;;;15.09;100.00
17309;BME280;8772;42.804;23.426;2022-09-01T02:34:20;94520.78;;;15.13;100.00
17309;BME280;8772;42.804;23.426;2022-09-01T02:36:49;94518.47;;;15.02;100.00
17309;BME280;8772;42.804;23.426;2022-09-01T02:39:19;94522.34;;;15.01;100.00
17309;BME280;8772;42.804;23.426;2022-09-01T02:41:47;94521.47;;;15.04;100.00
17309;BME280;8772;42.804;23.426;2022-09-01T02:44:15;94526.28;;;15.09;100.00
17309;BME280;8772;42.804;23.426;2022-09-01T02:46:46;94514.91;;;15.05;100.00
17309;BME280;8772;42.804;23.426;2022-09-01T02:49:17;94519.09;;;15.06;100.00
17309;BME280;8772;42.804;23.426;2022-09-01T02:51:48;94513.44;;;15.13;100.00
17309;BME280;8772;42.804;23.426;2022-09-01T02:54:16;94513.13;;;15.11;100.00
17309;BME280;8772;42.804;23.426;2022-09-01T02:56:44;94508.31;;;15.06;100.00
17309;BME280;8772;42.804;23.426;2022-09-01T02:59:13;94510.25;;;15.06;100.00
17309;BME280;8772;42.804;23.426;2022-09-01T03:01:40;94498.63;;;14.87;100.00
17309;BME280;8772;42.804;23.426;2022-09-01T03:04:10;94502.50;;;14.86;100.00
17309;BME280;8772;42.804;23.426;2022-09-01T03:06:38;94499.19;;;14.82;100.00
17309;BME280;8772;42.804;23.426;2022-09-01T03:09:08;94502.97;;;14.85;100.00
17309;BME280;8772;42.804;23.426;2022-09-01T03:11:38;94501.59;;;14.80;100.00
17309;BME280;8772;42.804;23.426;2022-09-01T03:14:05;94505.97;;;14.87;100.00
17309;BME280;8772;42.804;23.426;2022-09-01T03:16:33;94499.81;;;14.86;100.00
17309;BME280;8772;42.804;23.426;2022-09-01T03:19:00;94497.78;;;14.90;100.00
17309;BME280;8772;42.804;23.426;2022-09-01T03:21:29;94494.00;;;14.88;100.00
17309;BME280;8772;42.804;23.426;2022-09-01T03:23:57;94488.88;;;14.81;100.00
17309;BME280;8772;42.804;23.426;2022-09-01T03:26:28;94491.44;;;14.84;100.00
17309;BME280;8772;42.804;23.426;2022-09-01T03:28:55;94492.31;;;14.81;100.00
17309;BME280;8772;42.804;23.426;2022-09-01T03:31:23;94497.72;;;14.81;100.00
17309;BME280;8772;42.804;23.426;2022-09-01T03:33:52;94500.41;;;14.81;100.00
17309;BME280;8772;42.804;23.426;2022-09-01T03:36:22;94497.63;;;14.72;100.00
17309;BME280;8772;42.804;23.426;2022-09-01T03:38:50;94497.94;;;14.74;100.00
17309;BME280;8772;42.804;23.426;2022-09-01T03:41:20;94501.41;;;14.75;100.00
17309;BME280;8772;42.804;23.426;2022-09-01T03:43:49;94506.03;;;14.74;100.00
17309;BME280;8772;42.804;23.426;2022-09-01T03:46:20;94501.53;;;14.71;100.00
17309;BME280;8772;42.804;23.426;2022-09-01T03:48:48;94503.03;;;14.72;100.00
17309;BME280;8772;42.804;23.426;2022-09-01T03:51:18;94506.66;;;14.78;100.00
17309;BME280;8772;42.804;23.426;2022-09-01T03:53:47;94512.56;;;14.64;100.00
17309;BME280;8772;42.804;23.426;2022-09-01T03:56:15;94498.22;;;14.67;100.00
17309;BME280;8772;42.804;23.426;2022-09-01T03:58:42;94500.91;;;14.67;100.00
17309;BME280;8772;42.804;23.426;2022-09-01T04:01:13;94500.34;;;14.72;100.00
17309;BME280;8772;42.804;23.426;2022-09-01T04:03:40;94497.63;;;14.72;100.00
17309;BME280;8772;42.804;23.426;2022-09-01T04:06:11;94501.84;;;14.73;100.00
17309;BME280;8772;42.804;23.426;2022-09-01T04:08:38;94507.41;;;14.79;100.00
17309;BME280;8772;42.804;23.426;2022-09-01T04:11:11;94511.78;;;14.85;100.00
17309;BME280;8772;42.804;23.426;2022-09-01T04:13:41;94503.88;;;14.91;100.00
17309;BME280;8772;42.804;23.426;2022-09-01T04:16:19;94514.53;;;14.94;100.00
17309;BME280;8772;42.804;23.426;2022-09-01T04:19:04;94517.53;;;14.96;100.00
17309;BME280;8772;42.804;23.426;2022-09-01T04:21:41;94505.88;;;14.99;100.00
17309;BME280;8772;42.804;23.426;2022-09-01T04:24:09;94507.66;;;14.93;100.00
17309;BME280;8772;42.804;23.426;2022-09-01T04:26:38;94503.28;;;14.65;100.00
17309;BME280;8772;42.804;23.426;2022-09-01T04:29:05;94492.75;;;14.58;100.00
17309;BME280;8772;42.804;23.426;2022-09-01T04:31:36;94492.25;;;14.72;100.00
17309;BME280;8772;42.804;23.426;2022-09-01T04:34:05;94499.50;;;14.84;100.00
17309;BME280;8772;42.804;23.426;2022-09-01T04:36:40;94499.28;;;14.91;100.00
17309;BME280;8772;42.804;23.426;2022-09-01T04:39:09;94502.25;;;14.93;100.00
17309;BME280;8772;42.804;23.426;2022-09-01T04:41:39;94502.63;;;15.04;100.00
17309;BME280;8772;42.804;23.426;2022-09-01T04:44:11;94504.50;;;15.16;100.00
17309;BME280;8772;42.804;23.426;2022-09-01T04:46:42;94501.81;;;15.25;100.00
17309;BME280;8772;42.804;23.426;2022-09-01T04:49:11;94507.28;;;15.34;100.00
17309;BME280;8772;42.804;23.426;2022-09-01T04:51:45;94509.44;;;15.48;100.00
17309;BME280;8772;42.804;23.426;2022-09-01T04:54:13;94509.03;;;15.58;100.00
17309;BME280;8772;42.804;23.426;2022-09-01T04:56:42;94504.72;;;15.70;100.00
17309;BME280;8772;42.804;23.426;2022-09-01T04:59:10;94508.94;;;15.80;100.00
17309;BME280;8772;42.804;23.426;2022-09-01T05:01:39;94502.69;;;15.92;100.00
17309;BME280;8772;42.804;23.426;2022-09-01T05:04:12;94509.59;;;16.02;100.00
17309;BME280;8772;42.804;23.426;2022-09-01T05:06:44;94517.56;;;16.14;100.00
17309;BME280;8772;42.804;23.426;2022-09-01T05:09:12;94511.72;;;16.25;100.00
17309;BME280;8772;42.804;23.426;2022-09-01T05:11:39;94502.03;;;16.36;100.00
17309;BME280;8772;42.804;23.426;2022-09-01T05:14:07;94510.13;;;16.45;100.00
17309;BME280;8772;42.804;23.426;2022-09-01T05:16:34;94507.41;;;16.54;100.00
17309;BME280;8772;42.804;23.426;2022-09-01T05:19:02;94500.06;;;16.64;100.00
17309;BME280;8772;42.804;23.426;2022-09-01T05:21:31;94501.09;;;16.75;100.00
17309;BME280;8772;42.804;23.426;2022-09-01T05:23:59;94494.66;;;16.82;100.00
17309;BME280;8772;42.804;23.426;2022-09-01T05:26:30;94507.66;;;16.92;100.00
17309;BME280;8772;42.804;23.426;2022-09-01T05:29:02;94501.50;;;17.01;100.00
17309;BME280;8772;42.804;23.426;2022-09-01T05:31:34;94500.47;;;17.07;100.00
17309;BME280;8772;42.804;23.426;2022-09-01T05:34:02;94502.69;;;17.18;100.00
17309;BME280;8772;42.804;23.426;2022-09-01T05:36:31;94496.78;;;17.28;100.00
17309;BME280;8772;42.804;23.426;2022-09-01T05:38:58;94502.03;;;17.32;100.00
17309;BME280;8772;42.804;23.426;2022-09-01T05:41:26;94503.38;;;17.45;100.00
17309;BME280;8772;42.804;23.426;2022-09-01T05:43:53;94498.66;;;17.55;100.00
17309;BME280;8772;42.804;23.426;2022-09-01T05:46:23;94504.50;;;17.62;100.00
17309;BME280;8772;42.804;23.426;2022-09-01T05:48:52;94497.56;;;17.70;100.00
17309;BME280;8772;42.804;23.426;2022-09-01T05:51:22;94503.94;;;17.81;100.00
17309;BME280;8772;42.804;23.426;2022-09-01T05:53:52;94495.84;;;17.81;100.00
17309;BME280;8772;42.804;23.426;2022-09-01T05:56:23;94494.88;;;17.93;100.00
17309;BME280;8772;42.804;23.426;2022-09-01T05:58:51;94500.28;;;17.93;100.00
17309;BME280;8772;42.804;23.426;2022-09-01T06:01:19;94494.81;;;18.02;100.00
17309;BME280;8772;42.804;23.426;2022-09-01T06:03:48;94485.41;;;18.12;100.00
17309;BME280;8772;42.804;23.426;2022-09-01T06:06:19;94499.38;;;18.20;100.00
17309;BME280;8772;42.804;23.426;2022-09-01T06:08:48;94494.06;;;18.25;100.00
17309;BME280;8772;42.804;23.426;2022-09-01T06:11:16;94495.91;;;18.19;100.00
17309;BME280;8772;42.804;23.426;2022-09-01T06:13:44;94499.16;;;18.32;100.00
17309;BME280;8772;42.804;23.426;2022-09-01T06:16:12;94500.03;;;18.38;100.00
17309;BME280;8772;42.804;23.426;2022-09-01T06:18:40;94496.94;;;18.45;100.00
17309;BME280;8772;42.804;23.426;2022-09-01T06:21:10;94489.47;;;18.40;100.00
17309;BME280;8772;42.804;23.426;2022-09-01T06:23:40;94492.19;;;18.40;100.00
17309;BME280;8772;42.804;23.426;2022-09-01T06:26:16;94491.47;;;18.54;100.00
17309;BME280;8772;42.804;23.426;2022-09-01T06:28:44;94491.41;;;18.63;100.00
17309;BME280;8772;42.804;23.426;2022-09-01T06:31:12;94496.25;;;18.74;100.00
17309;BME280;8772;42.804;23.426;2022-09-01T06:33:39;94499.25;;;18.76;100.00
17309;BME280;8772;42.804;23.426;2022-09-01T06:36:07;94497.19;;;18.85;100.00
17309;BME280;8772;42.804;23.426;2022-09-01T06:38:35;94493.28;;;18.86;100.00
17309;BME280;8772;42.804;23.426;2022-09-01T06:41:05;94496.19;;;18.97;100.00
17309;BME280;8772;42.804;23.426;2022-09-01T06:43:38;94493.47;;;18.97;100.00
17309;BME280;8772;42.804;23.426;2022-09-01T06:46:07;94492.44;;;19.09;100.00
17309;BME280;8772;42.804;23.426;2022-09-01T06:48:35;94487.59;;;19.13;100.00
17309;BME280;8772;42.804;23.426;2022-09-01T06:51:04;94486.03;;;19.21;100.00
17309;BME280;8772;42.804;23.426;2022-09-01T06:53:34;94493.13;;;19.33;100.00
17309;BME280;8772;42.804;23.426;2022-09-01T06:56:01;94491.28;;;19.39;100.00
17309;BME280;8772;42.804;23.426;2022-09-01T06:58:28;94486.13;;;19.41;100.00
17309;BME280;8772;42.804;23.426;2022-09-01T07:00:57;94483.75;;;19.49;100.00
17309;BME280;8772;42.804;23.426;2022-09-01T07:03:25;94484.88;;;19.57;100.00
17309;BME280;8772;42.804;23.426;2022-09-01T07:05:52;94492.69;;;19.69;100.00
17309;BME280;8772;42.804;23.426;2022-09-01T07:08:20;94493.81;;;19.77;100.00
17309;BME280;8772;42.804;23.426;2022-09-01T07:10:49;94495.25;;;19.93;100.00
17309;BME280;8772;42.804;23.426;2022-09-01T07:13:21;94494.91;;;19.85;100.00
17309;BME280;8772;42.804;23.426;2022-09-01T07:15:51;94494.09;;;19.99;100.00
17309;BME280;8772;42.804;23.426;2022-09-01T07:18:22;94489.41;;;20.14;100.00
17309;BME280;8772;42.804;23.426;2022-09-01T07:20:51;94492.13;;;20.34;100.00
17309;BME280;8772;42.804;23.426;2022-09-01T07:23:18;94483.66;;;20.46;100.00
17309;BME280;8772;42.804;23.426;2022-09-01T07:25:47;94483.44;;;20.50;100.00
17309;BME280;8772;42.804;23.426;2022-09-01T07:28:17;94489.94;;;20.58;100.00
17309;BME280;8772;42.804;23.426;2022-09-01T07:30:46;94483.66;;;20.72;100.00
17309;BME280;8772;42.804;23.426;2022-09-01T07:33:15;94487.63;;;20.91;100.00
17309;BME280;8772;42.804;23.426;2022-09-01T07:35:46;94485.94;;;20.99;100.00
17309;BME280;8772;42.804;23.426;2022-09-01T07:38:14;94480.34;;;21.08;100.00
17309;BME280;8772;42.804;23.426;2022-09-01T07:40:45;94479.44;;;21.16;100.00
17309;BME280;8772;42.804;23.426;2022-09-01T07:43:15;94485.47;;;21.26;100.00
17309;BME280;8772;42.804;23.426;2022-09-01T07:45:48;94484.00;;;21.30;100.00
17309;BME280;8772;42.804;23.426;2022-09-01T07:48:16;94487.22;;;21.29;100.00
17309;BME280;8772;42.804;23.426;2022-09-01T07:50:47;94484.78;;;21.31;100.00
17309;BME280;8772;42.804;23.426;2022-09-01T07:53:18;94479.84;;;21.35;100.00
17309;BME280;8772;42.804;23.426;2022-09-01T07:55:47;94485.56;;;21.37;100.00
17309;BME280;8772;42.804;23.426;2022-09-01T07:58:16;94491.38;;;21.50;100.00
17309;BME280;8772;42.804;23.426;2022-09-01T08:00:43;94491.13;;;21.53;100.00
17309;BME280;8772;42.804;23.426;2022-09-01T08:03:11;94490.19;;;21.56;100.00
17309;BME280;8772;42.804;23.426;2022-09-01T08:05:39;94484.50;;;21.60;100.00
17309;BME280;8772;42.804;23.426;2022-09-01T08:08:14;94488.25;;;21.62;100.00
17309;BME280;8772;42.804;23.426;2022-09-01T08:10:42;94494.97;;;21.67;100.00
17309;BME280;8772;42.804;23.426;2022-09-01T08:13:10;94492.25;;;21.67;100.00
17309;BME280;8772;42.804;23.426;2022-09-01T08:15:41;94495.78;;;21.78;100.00
17309;BME280;8772;42.804;23.426;2022-09-01T08:18:08;94489.41;;;21.87;100.00
17309;BME280;8772;42.804;23.426;2022-09-01T08:20:37;94480.38;;;22.01;100.00
17309;BME280;8772;42.804;23.426;2022-09-01T08:23:12;94486.38;;;22.16;100.00
17309;BME280;8772;42.804;23.426;2022-09-01T08:25:40;94482.25;;;22.37;100.00
17309;BME280;8772;42.804;23.426;2022-09-01T08:28:08;94489.56;;;22.56;100.00
17309;BME280;8772;42.804;23.426;2022-09-01T08:30:38;94476.97;;;22.69;100.00
17309;BME280;8772;42.804;23.426;2022-09-01T08:33:06;94474.78;;;22.95;100.00
17309;BME280;8772;42.804;23.426;2022-09-01T08:35:37;94472.13;;;23.17;100.00
17309;BME280;8772;42.804;23.426;2022-09-01T08:38:04;94469.44;;;23.50;100.00
17309;BME280;8772;42.804;23.426;2022-09-01T08:40:33;94469.91;;;23.76;100.00
17309;BME280;8772;42.804;23.426;2022-09-01T08:43:10;94474.09;;;24.05;100.00
17309;BME280;8772;42.804;23.426;2022-09-01T08:45:44;94471.03;;;24.36;100.00
17309;BME280;8772;42.804;23.426;2022-09-01T08:48:16;94472.22;;;24.62;100.00
17309;BME280;8772;42.804;23.426;2022-09-01T08:50:47;94472.84;;;24.85;100.00
17309;BME280;8772;42.804;23.426;2022-09-01T08:53:22;94456.50;;;25.14;100.00
17309;BME280;8772;42.804;23.426;2022-09-01T08:55:56;94457.28;;;25.44;100.00
17309;BME280;8772;42.804;23.426;2022-09-01T08:58:24;94458.75;;;25.74;100.00
17309;BME280;8772;42.804;23.426;2022-09-01T09:00:55;94457.84;;;25.96;100.00
17309;BME280;8772;42.804;23.426;2022-09-01T09:03:33;94448.00;;;26.30;100.00
17309;BME280;8772;42.804;23.426;2022-09-01T09:06:11;94449.72;;;26.57;100.00
17309;BME280;8772;42.804;23.426;2022-09-01T09:08:57;94448.38;;;27.00;100.00
17309;BME280;8772;42.804;23.426;2022-09-01T09:12:00;94444.66;;;27.34;100.00
17309;BME280;8772;42.804;23.426;2022-09-01T09:14:43;94430.84;;;27.03;64.54
17309;BME280;8772;42.804;23.426;2022-09-01T09:17:19;94430.13;;;27.03;60.91
17309;BME280;8772;42.804;23.426;2022-09-01T09:19:49;94427.31;;;27.27;64.74
17309;BME280;8772;42.804;23.426;2022-09-01T09:22:18;94424.81;;;27.41;63.44
17309;BME280;8772;42.804;23.426;2022-09-01T09:24:49;94421.22;;;27.78;67.82
17309;BME280;8772;42.804;23.426;2022-09-01T09:27:20;94414.38;;;27.97;61.44
17309;BME280;8772;42.804;23.426;2022-09-01T09:29:48;94421.97;;;27.78;57.38
17309;BME280;8772;42.804;23.426;2022-09-01T09:32:16;94412.66;;;27.81;61.68
17309;BME280;8772;42.804;23.426;2022-09-01T09:34:44;94411.66;;;28.23;61.58
17309;BME280;8772;42.804;23.426;2022-09-01T09:37:23;94404.66;;;28.48;61.42
17309;BME280;8772;42.804;23.426;2022-09-01T09:40:12;94407.19;;;29.06;56.70
17309;BME280;8772;42.804;23.426;2022-09-01T09:42:58;94409.56;;;29.22;57.63
17309;BME280;8772;42.804;23.426;2022-09-01T09:45:29;94410.47;;;29.04;55.11
17309;BME280;8772;42.804;23.426;2022-09-01T09:47:58;94400.81;;;29.31;55.66
17309;BME280;8772;42.804;23.426;2022-09-01T09:50:28;94391.09;;;29.51;56.45
17309;BME280;8772;42.804;23.426;2022-09-01T09:53:14;94393.44;;;29.67;53.24
17309;BME280;8772;42.804;23.426;2022-09-01T09:55:53;94388.97;;;30.05;53.93
17309;BME280;8772;42.804;23.426;2022-09-01T09:58:25;94393.97;;;29.86;50.16
17309;BME280;8772;42.804;23.426;2022-09-01T10:01:01;94388.97;;;30.05;49.59
17309;BME280;8772;42.804;23.426;2022-09-01T10:03:38;94393.56;;;29.82;51.37
17309;BME280;8772;42.804;23.426;2022-09-01T10:06:10;94392.38;;;29.50;48.51
17309;BME280;8772;42.804;23.426;2022-09-01T10:08:40;94386.09;;;30.18;53.10
17309;BME280;8772;42.804;23.426;2022-09-01T10:11:22;94389.41;;;30.52;51.58
17309;BME280;8772;42.804;23.426;2022-09-01T10:13:53;94385.56;;;30.55;50.42
17309;BME280;8772;42.804;23.426;2022-09-01T10:16:26;94381.56;;;30.63;47.95
17309;BME280;8772;42.804;23.426;2022-09-01T10:18:56;94367.72;;;31.06;48.43
17309;BME280;8772;42.804;23.426;2022-09-01T10:21:30;94380.66;;;31.34;47.77
17309;BME280;8772;42.804;23.426;2022-09-01T10:23:59;94376.59;;;31.20;44.51
17309;BME280;8772;42.804;23.426;2022-09-01T10:26:30;94370.63;;;30.93;45.92
17309;BME280;8772;42.804;23.426;2022-09-01T10:29:05;94367.94;;;31.31;47.73
17309;BME280;8772;42.804;23.426;2022-09-01T10:31:33;94369.81;;;31.51;47.40
17309;BME280;8772;42.804;23.426;2022-09-01T10:34:03;94367.22;;;31.60;44.95
17309;BME280;8772;42.804;23.426;2022-09-01T10:36:31;94359.69;;;31.91;45.59
17309;BME280;8772;42.804;23.426;2022-09-01T10:38:59;94357.84;;;31.93;46.98
17309;BME280;8772;42.804;23.426;2022-09-01T10:42:00;94351.41;;;32.52;46.53
17309;BME280;8772;42.804;23.426;2022-09-01T10:44:34;94357.25;;;32.79;45.56
17309;BME280;8772;42.804;23.426;2022-09-01T10:47:08;94356.84;;;32.82;42.79
17309;BME280;8772;42.804;23.426;2022-09-01T10:55:39;94343.63;;;32.58;42.92
17309;BME280;8772;42.804;23.426;2022-09-01T10:58:44;94348.97;;;33.03;44.19
17309;BME280;8772;42.804;23.426;2022-09-01T11:07:30;94337.03;;;33.50;40.58
17309;BME280;8772;42.804;23.426;2022-09-01T11:10:27;94328.66;;;33.57;40.71
17309;BME280;8772;42.804;23.426;2022-09-01T11:13:10;94327.25;;;33.24;37.02
17309;BME280;8772;42.804;23.426;2022-09-01T11:15:43;94324.59;;;33.02;37.80
17309;BME280;8772;42.804;23.426;2022-09-01T11:18:15;94324.63;;;32.94;40.90
17309;BME280;8772;42.804;23.426;2022-09-01T11:20:44;94311.03;;;32.81;41.07
17309;BME280;8772;42.804;23.426;2022-09-01T11:23:22;94316.31;;;33.26;42.30
17309;BME280;8772;42.804;23.426;2022-09-01T11:25:50;94308.59;;;33.66;40.24
17309;BME280;8772;42.804;23.426;2022-09-01T11:28:36;94308.41;;;33.89;39.35
17309;BME280;8772;42.804;23.426;2022-09-01T11:31:25;94306.56;;;34.08;37.62
17309;BME280;8772;42.804;23.426;2022-09-01T11:36:52;94294.56;;;34.40;38.39
17309;BME280;8772;42.804;23.426;2022-09-01T11:39:30;94300.03;;;34.47;38.34
17309;BME280;8772;42.804;23.426;2022-09-01T11:42:00;94293.03;;;33.71;36.09
17309;BME280;8772;42.804;23.426;2022-09-01T11:44:35;94283.31;;;33.13;35.76
17309;BME280;8772;42.804;23.426;2022-09-01T11:47:06;94277.16;;;33.64;38.92
17309;BME280;8772;42.804;23.426;2022-09-01T11:49:38;94269.97;;;33.85;38.52
17309;BME280;8772;42.804;23.426;2022-09-01T11:52:07;94267.50;;;34.06;38.68
17309;BME280;8772;42.804;23.426;2022-09-01T11:54:42;94252.56;;;34.19;37.46
17309;BME280;8772;42.804;23.426;2022-09-01T11:57:20;94257.38;;;34.35;37.91
17309;BME280;8772;42.804;23.426;2022-09-01T11:59:48;94261.34;;;33.57;37.15
17309;BME280;8772;42.804;23.426;2022-09-01T12:02:19;94255.13;;;34.24;38.61
17309;BME280;8772;42.804;23.426;2022-09-01T12:04:49;94258.88;;;34.63;39.07
17309;BME280;8772;42.804;23.426;2022-09-01T12:07:27;94261.28;;;34.49;38.00
17309;BME280;8772;42.804;23.426;2022-09-01T12:09:56;94266.59;;;34.81;39.51
17309;BME280;8772;42.804;23.426;2022-09-01T12:12:30;94259.75;;;34.65;36.49
17309;BME280;8772;42.804;23.426;2022-09-01T12:14:57;94256.59;;;34.52;39.48
17309;BME280;8772;42.804;23.426;2022-09-01T12:17:25;94247.84;;;34.72;39.32
17309;BME280;8772;42.804;23.426;2022-09-01T12:19:54;94258.00;;;34.87;38.86
17309;BME280;8772;42.804;23.426;2022-09-01T12:22:21;94249.63;;;34.77;37.46
17309;BME280;8772;42.804;23.426;2022-09-01T12:24:50;94248.34;;;34.61;39.74
17309;BME280;8772;42.804;23.426;2022-09-01T12:27:18;94251.09;;;34.78;38.12
17309;BME280;8772;42.804;23.426;2022-09-01T12:29:46;94253.19;;;34.87;38.60
17309;BME280;8772;42.804;23.426;2022-09-01T12:32:14;94246.28;;;34.35;34.65
17309;BME280;8772;42.804;23.426;2022-09-01T12:34:45;94249.56;;;34.24;34.78
17309;BME280;8772;42.804;23.426;2022-09-01T12:37:21;94249.06;;;34.01;40.17
17309;BME280;8772;42.804;23.426;2022-09-01T12:39:50;94250.19;;;34.15;42.29
17309;BME280;8772;42.804;23.426;2022-09-01T12:42:24;94250.84;;;33.31;42.42
17309;BME280;8772;42.804;23.426;2022-09-01T12:44:53;94250.28;;;32.44;43.32
17309;BME280;8772;42.804;23.426;2022-09-01T12:47:44;94244.16;;;32.45;43.60
17309;BME280;8772;42.804;23.426;2022-09-01T12:53:20;94238.75;;;31.54;44.71
17309;BME280;8772;42.804;23.426;2022-09-01T12:55:58;94243.53;;;31.61;46.48
17309;BME280;8772;42.804;23.426;2022-09-01T12:58:27;94241.88;;;31.43;45.34
17309;BME280;8772;42.804;23.426;2022-09-01T13:00:59;94239.09;;;30.68;49.15
17309;BME280;8772;42.804;23.426;2022-09-01T13:03:28;94244.31;;;30.28;48.65
17309;BME280;8772;42.804;23.426;2022-09-01T13:05:56;94243.97;;;29.96;50.04
17309;BME280;8772;42.804;23.426;2022-09-01T13:08:27;94234.56;;;30.27;50.44
17309;BME280;8772;42.804;23.426;2022-09-01T13:10:57;94229.44;;;30.39;50.36
17309;BME280;8772;42.804;23.426;2022-09-01T13:13:25;94223.75;;;30.01;50.50
17309;BME280;8772;42.804;23.426;2022-09-01T13:15:54;94227.72;;;29.78;49.81
17309;BME280;8772;42.804;23.426;2022-09-01T13:18:26;94219.19;;;29.41;51.18
17309;BME280;8772;42.804;23.426;2022-09-01T13:20:54;94219.88;;;29.54;52.72
17309;BME280;8772;42.804;23.426;2022-09-01T13:23:22;94214.28;;;29.47;54.63
17309;BME280;8772;42.804;23.426;2022-09-01T13:25:50;94220.47;;;29.40;52.71
17309;BME280;8772;42.804;23.426;2022-09-01T13:28:18;94221.44;;;29.14;55.07
17309;BME280;8772;42.804;23.426;2022-09-01T13:30:53;94217.19;;;29.13;55.90